Time;durP1;ratioP1;P1;durP2;ratioP2;P2;SDS_P1;SDS_P2;PMS_P1;PMS_P2;Temp;Humidity;BMP_temperature;BMP_pressure;BME280_temperature;BME280_humidity;BME280_pressure;Samples;Min_cycle;Max_cycle;Signal;HPM_P1;HPM_P2
2022/03/01 00:00:09;;;;;;;3.42;2.75;;;;;;;2.13;51.34;101063.91;5336624;26;34658;-90
2022/03/01 00:02:41;;;;;;;4.00;2.70;;;;;;;2.00;51.60;101062.50;5336746;26;34383;-90
2022/03/01 00:05:10;;;;;;;3.55;2.83;;;;;;;2.78;49.59;101067.47;5342754;26;32429;-90
2022/03/01 00:07:39;;;;;;;4.25;2.40;;;;;;;2.51;50.29;101069.75;5336893;26;34500;-90
2022/03/01 00:10:09;;;;;;;3.03;2.65;;;;;;;2.73;49.54;101061.25;5315561;26;33733;-90
2022/03/01 00:12:38;;;;;;;7.65;2.42;;;;;;;1.80;52.02;101058.19;5336354;26;33661;-90
2022/03/01 00:15:07;;;;;;;3.95;2.92;;;;;;;1.90;51.95;101062.91;5334785;26;33386;-90
2022/03/01 00:17:36;;;;;;;6.78;3.45;;;;;;;1.99;51.18;101070.13;5342670;26;34133;-89
2022/03/01 00:20:08;;;;;;;4.60;2.67;;;;;;;1.96;51.79;101058.06;5336973;26;33970;-90
2022/03/01 00:22:36;;;;;;;;;;;;;;;2.83;49.30;101059.94;5336747;26;33950;-90
2022/03/01 00:25:06;;;;;;;4.35;3.78;;;;;;;2.30;50.72;101060.37;5336998;26;32794;-89
2022/03/01 00:27:35;;;;;;;2.85;2.47;;;;;;;2.06;51.18;101051.66;5336619;26;34845;-91
2022/03/01 00:30:05;;;;;;;6.32;3.15;;;;;;;2.07;51.06;101053.41;5342307;26;34307;-90
2022/03/01 00:32:34;;;;;;;4.72;2.42;;;;;;;2.28;50.71;101053.44;5336564;26;33923;-89
2022/03/01 00:35:02;;;;;;;2.95;2.62;;;;;;;2.13;50.96;101049.44;5336755;26;34159;-91
2022/03/01 00:37:32;;;;;;;3.37;2.37;;;;;;;2.23;50.51;101050.69;5339633;26;34221;-90
2022/03/01 00:40:01;;;;;;;3.15;2.67;;;;;;;1.53;52.36;101053.59;5336776;26;34036;-90
2022/03/01 00:42:30;;;;;;;4.53;3.00;;;;;;;1.59;51.96;101043.63;5337375;26;33922;-91
2022/03/01 00:44:59;;;;;;;3.70;2.85;;;;;;;1.97;51.07;101057.25;5342395;26;33361;-90
2022/03/01 00:47:28;;;;;;;3.25;2.87;;;;;;;2.23;50.60;101057.50;5336955;26;34534;-91
2022/03/01 00:49:57;;;;;;;4.00;2.70;;;;;;;1.61;52.01;101042.03;5336247;26;33829;-89
2022/03/01 00:52:26;;;;;;;2.40;2.20;;;;;;;1.89;51.47;101046.69;5336428;26;33800;-91
2022/03/01 00:54:56;;;;;;;3.20;2.50;;;;;;;2.24;50.29;101054.13;5338005;26;34130;-90
2022/03/01 00:57:26;;;;;;;2.60;2.35;;;;;;;1.46;52.27;101054.13;5341089;26;33681;-91
2022/03/01 00:59:55;;;;;;;2.47;2.28;;;;;;;2.01;50.88;101054.03;5315828;26;32959;-91
2022/03/01 01:02:24;;;;;;;2.45;2.25;;;;;;;1.79;51.48;101043.63;5335744;26;34023;-92
2022/03/01 01:04:53;;;;;;;3.20;2.70;;;;;;;2.71;48.62;101047.53;5336510;26;34126;-91
2022/03/01 01:07:22;;;;;;;3.37;2.33;;;;;;;2.13;50.24;101039.19;5342520;26;34011;-92
2022/03/01 01:09:50;;;;;;;4.05;3.03;;;;;;;2.31;49.68;101045.88;5337750;26;34524;-90
2022/03/01 01:12:20;;;;;;;2.60;2.37;;;;;;;1.97;50.78;101047.00;5340059;26;34459;-90
2022/03/01 01:14:49;;;;;;;2.62;2.40;;;;;;;2.02;50.62;101044.66;5337713;26;33119;-91
2022/03/01 01:17:18;;;;;;;3.40;2.55;;;;;;;2.19;50.16;101043.69;5337702;26;33483;-91
2022/03/01 01:19:47;;;;;;;3.67;2.90;;;;;;;2.13;50.02;101044.31;5338370;26;33552;-90
2022/03/01 01:25:04;;;;;;;3.42;2.72;;;;;;;2.10;49.96;101046.75;5337172;26;33547;-90
2022/03/01 01:27:34;;;;;;;3.30;2.40;;;;;;;2.46;48.83;101041.38;5316961;26;33808;-90
2022/03/01 01:30:04;;;;;;;3.42;2.90;;;;;;;2.22;49.53;101035.25;5338282;26;32850;-90
2022/03/01 01:32:33;;;;;;;3.05;2.40;;;;;;;2.83;48.07;101044.56;5337034;26;34487;-90
2022/03/01 01:35:02;;;;;;;4.62;2.92;;;;;;;2.62;48.42;101045.47;5343156;26;33177;-90
2022/03/01 01:37:31;;;;;;;2.72;2.53;;;;;;;2.36;49.15;101046.94;5339721;26;33600;-90
2022/03/01 01:40:00;;;;;;;2.92;2.50;;;;;;;2.66;48.40;101041.31;5337064;26;34084;-90
2022/03/01 01:42:29;;;;;;;4.55;2.35;;;;;;;2.41;48.91;101045.44;5336923;26;33843;-90
2022/03/01 01:45:00;;;;;;;4.70;2.85;;;;;;;2.96;47.44;101046.81;5337575;26;34097;-90
2022/03/01 01:47:48;;;;;;;4.00;2.58;;;;;;;2.57;48.21;101044.41;5337384;26;34340;-90
2022/03/01 01:50:17;;;;;;;2.67;2.30;;;;;;;2.19;49.30;101053.06;5342531;26;34775;-90
2022/03/01 01:52:47;;;;;;;3.50;2.65;;;;;;;2.32;48.66;101050.19;5337200;26;34066;-90
2022/03/01 01:55:17;;;;;;;3.20;2.30;;;;;;;1.95;49.90;101045.19;5337208;26;33439;-89
2022/03/01 01:57:46;;;;;;;3.73;2.73;;;;;;;2.82;47.99;101043.69;5317072;26;32091;-89
2022/03/01 02:00:18;;;;;;;3.40;2.25;;;;;;;2.65;47.83;101039.59;5337190;26;33673;-90
2022/03/01 02:02:47;;;;;;;2.30;2.10;;;;;;;2.42;48.81;101042.09;5337127;26;33839;-90
2022/03/01 02:05:16;;;;;;;3.12;2.72;;;;;;;2.22;48.88;101035.25;5342695;26;33337;-91
2022/03/01 02:07:47;;;;;;;2.53;2.30;;;;;;;1.81;49.63;101035.25;5337637;26;33824;-90
2022/03/01 02:10:16;;;;;;;3.00;2.55;;;;;;;2.39;48.09;101031.69;5337573;26;33505;-89
2022/03/01 02:12:46;;;;;;;2.58;2.17;;;;;;;2.58;47.84;101032.47;5317216;26;33900;-91
2022/03/01 02:15:17;;;;;;;4.37;2.37;;;;;;;2.30;48.48;101033.91;5316847;26;33279;-91
2022/03/01 02:17:47;;;;;;;4.07;2.90;;;;;;;2.22;48.80;101032.69;5342402;26;34025;-90
2022/03/01 02:20:18;;;;;;;4.28;2.33;;;;;;;2.04;49.30;101033.66;5337378;26;33856;-90
2022/03/01 02:22:52;;;;;;;2.60;2.30;;;;;;;1.81;49.65;101024.09;5337388;26;33578;-90
2022/03/01 02:25:21;;;;;;;2.45;2.25;;;;;;;2.14;48.69;101029.81;5337367;26;34116;-90
2022/03/01 02:27:50;;;;;;;2.40;2.20;;;;;;;2.19;48.39;101025.75;5336544;26;33401;-89
2022/03/01 02:30:19;;;;;;;2.33;2.12;;;;;;;2.30;48.24;101029.66;5319005;26;33140;-90
2022/03/01 02:32:48;;;;;;;2.42;2.17;;;;;;;1.97;48.96;101023.09;5342828;26;33893;-91
2022/03/01 02:35:19;;;;;;;2.65;2.35;;;;;;;2.01;49.03;101020.75;5336707;26;33396;-91
2022/03/01 02:37:47;;;;;;;2.85;2.33;;;;;;;2.16;48.35;101027.31;5337155;26;33415;-90
2022/03/01 02:40:17;;;;;;;3.60;2.17;;;;;;;2.12;48.19;101019.50;5336587;26;34859;-89
2022/03/01 02:42:49;;;;;;;2.95;2.60;;;;;;;2.02;49.01;101024.16;5336685;26;34022;-89
2022/03/01 02:45:19;;;;;;;2.47;2.22;;;;;;;2.35;47.95;101024.72;5321947;26;31693;-91
2022/03/01 02:47:48;;;;;;;2.70;2.28;;;;;;;2.54;47.72;101022.09;5337036;26;34418;-92
2022/03/01 02:50:18;;;;;;;2.67;2.30;;;;;;;2.62;47.22;101021.53;5336920;26;35009;-90
2022/03/01 02:52:47;;;;;;;3.53;2.42;;;;;;;1.75;49.30;101018.75;5337195;26;33946;-90
2022/03/01 02:55:16;;;;;;;5.43;2.42;;;;;;;1.95;49.01;101017.03;5336353;26;33750;-90
2022/03/01 02:57:45;;;;;;;2.30;2.10;;;;;;;2.64;47.39;101013.09;5342778;26;34057;-91
2022/03/01 03:00:14;;;;;;;4.28;2.30;;;;;;;2.32;47.51;101020.34;5336513;26;34801;-90
2022/03/01 03:02:44;;;;;;;2.10;1.90;;;;;;;2.51;47.17;101015.97;5337058;26;33806;-90
2022/03/01 03:05:13;;;;;;;1.92;1.83;;;;;;;2.41;47.48;101014.72;5336514;26;33111;-90
2022/03/01 03:07:45;;;;;;;4.53;2.40;;;;;;;1.85;48.53;101016.63;5337375;26;32542;-90
2022/03/01 03:10:13;;;;;;;2.45;2.20;;;;;;;2.18;48.32;101020.59;5337127;26;33727;-91
2022/03/01 03:12:44;;;;;;;2.37;2.17;;;;;;;2.16;48.32;101019.66;5343101;26;34048;-92
2022/03/01 03:15:14;;;;;;;2.20;2.00;;;;;;;3.01;46.11;101018.78;5336360;26;33158;-90
2022/03/01 03:17:45;;;;;;;2.70;2.35;;;;;;;2.22;47.52;101012.22;5337082;26;33626;-91
2022/03/01 03:20:14;;;;;;;2.78;2.15;;;;;;;2.37;47.43;101023.09;5335590;26;33888;-91
2022/03/01 03:22:43;;;;;;;2.30;2.10;;;;;;;2.28;46.92;101013.34;5334311;26;33607;-91
2022/03/01 03:25:13;;;;;;;2.20;2.05;;;;;;;2.61;46.42;101023.22;5339534;26;33318;-91
2022/03/01 03:27:42;;;;;;;3.10;2.30;;;;;;;2.67;46.67;101015.78;5334651;26;33240;-90
2022/03/01 03:30:11;;;;;;;2.10;1.90;;;;;;;2.85;46.22;101012.19;5334031;26;35282;-91
2022/03/01 03:32:44;;;;;;;2.42;2.22;;;;;;;2.66;46.21;101024.28;5336898;26;33906;-90
2022/03/01 03:35:13;;;;;;;2.12;1.95;;;;;;;2.75;46.08;101016.06;5336579;26;33442;-90
2022/03/01 03:37:41;;;;;;;2.28;2.08;;;;;;;2.43;46.73;101023.34;5342472;26;33872;-90
2022/03/01 03:40:12;;;;;;;3.62;2.83;;;;;;;2.86;45.76;101024.22;5338586;26;34855;-91
2022/03/01 03:42:44;;;;;;;2.53;2.17;;;;;;;2.16;47.21;101028.19;5336502;26;34259;-89
2022/03/01 03:45:13;;;;;;;2.85;2.15;;;;;;;2.12;48.00;101032.28;5336287;26;33531;-89
2022/03/01 03:47:43;;;;;;;3.55;2.35;;;;;;;2.52;46.82;101030.53;5316858;26;32303;-91
2022/03/01 03:50:12;;;;;;;1.90;1.80;;;;;;;2.69;46.68;101026.09;5336598;26;34444;-91
2022/03/01 03:52:42;;;;;;;2.50;2.30;;;;;;;2.81;46.10;101021.47;5342439;26;34081;-90
2022/03/01 03:55:12;;;;;;;2.75;2.20;;;;;;;2.89;46.15;101022.63;5336704;26;33175;-90
2022/03/01 03:57:41;;;;;;;2.22;2.03;;;;;;;2.82;45.65;101020.63;5337377;26;33928;-91
2022/03/01 04:00:15;;;;;;;2.03;1.92;;;;;;;3.21;45.40;101017.84;5339465;26;33267;-90
2022/03/01 04:02:45;;;;;;;2.83;1.92;;;;;;;3.31;44.87;101017.41;5336758;26;34317;-91
2022/03/01 04:05:15;;;;;;;2.72;2.20;;;;;;;3.14;45.30;101023.56;5342474;26;33364;-90
2022/03/01 04:07:46;;;;;;;2.58;2.10;;;;;;;3.25;45.41;101027.44;5336387;26;33610;-89
2022/03/01 04:10:17;;;;;;;1.85;1.75;;;;;;;3.30;45.42;101020.78;5336616;26;33949;-91
2022/03/01 04:12:46;;;;;;;;;;;;;;;3.34;45.33;101021.78;5337355;26;33655;-91
2022/03/01 04:15:15;;;;;;;3.72;2.22;;;;;;;3.22;45.46;101022.19;5336569;26;33546;-90
2022/03/01 04:17:43;;;;;;;3.50;2.20;;;;;;;2.95;45.54;101027.13;5338933;26;34627;-90
2022/03/01 04:20:13;;;;;;;2.40;2.20;;;;;;;2.82;46.70;101027.44;5341834;26;34069;-91
2022/03/01 04:22:45;;;;;;;2.20;2.00;;;;;;;2.77;46.66;101029.81;5316441;26;32512;-89
2022/03/01 04:25:16;;;;;;;2.67;2.00;;;;;;;2.86;46.39;101019.94;5336979;26;34197;-90
2022/03/01 04:27:45;;;;;;;2.50;2.23;;;;;;;2.71;46.94;101025.34;5314599;26;34104;-90
2022/03/01 04:30:15;;;;;;;2.35;2.15;;;;;;;2.47;47.34;101024.34;5336170;26;33633;-89
2022/03/01 04:32:45;;;;;;;2.33;2.10;;;;;;;2.75;46.93;101018.62;5342395;26;33853;-90
2022/03/01 04:35:14;;;;;;;2.70;2.20;;;;;;;2.42;47.55;101026.72;5336517;26;34751;-90
2022/03/01 04:37:44;;;;;;;2.67;2.03;;;;;;;2.52;47.41;101023.72;5337738;26;35132;-90
2022/03/01 04:40:15;;;;;;;2.00;1.90;;;;;;;2.39;47.36;101023.16;5336165;26;33867;-90
2022/03/01 04:42:45;;;;;;;2.47;2.25;;;;;;;2.56;47.86;101027.25;5336164;26;34663;-90
2022/03/01 04:45:17;;;;;;;3.65;2.30;;;;;;;2.12;48.81;101031.44;5340699;26;33586;-91
2022/03/01 04:47:46;;;;;;;2.45;2.00;;;;;;;1.89;49.00;101020.22;5342491;26;33983;-89
2022/03/01 04:50:15;;;;;;;4.15;2.08;;;;;;;2.31;48.02;101031.38;5336329;26;34127;-89
2022/03/01 04:52:44;;;;;;;3.62;2.20;;;;;;;1.97;49.09;101029.09;5337066;26;33841;-90
2022/03/01 04:55:14;;;;;;;2.25;2.00;;;;;;;2.43;47.62;101025.91;5316616;26;33049;-91
2022/03/01 04:57:45;;;;;;;2.42;2.20;;;;;;;2.14;48.97;101025.56;5336546;26;33855;-89
2022/03/01 05:00:15;;;;;;;2.62;2.20;;;;;;;2.37;47.79;101024.75;5342429;26;33647;-89
2022/03/01 05:02:45;;;;;;;2.72;2.40;;;;;;;2.41;48.08;101029.22;5336477;26;34574;-91
2022/03/01 05:05:15;;;;;;;2.40;2.20;;;;;;;2.22;48.18;101028.44;5336529;26;32757;-88
2022/03/01 05:07:47;;;;;;;2.78;2.28;;;;;;;2.33;47.98;101022.09;5336423;26;33335;-91
2022/03/01 05:10:18;;;;;;;2.70;2.12;;;;;;;2.30;47.98;101018.53;5336437;26;35169;-89
2022/03/01 05:12:52;;;;;;;2.62;2.28;;;;;;;2.26;48.19;101020.09;5342136;26;34513;-88
2022/03/01 05:15:22;;;;;;;3.10;2.22;;;;;;;2.33;48.28;101013.53;5342090;26;34168;-89
2022/03/01 05:17:51;;;;;;;2.42;2.22;;;;;;;2.31;47.99;101022.84;5336457;26;34370;-88
2022/03/01 05:20:25;;;;;;;1.98;1.87;;;;;;;2.63;47.18;101015.59;5336753;26;33990;-88
2022/03/01 05:22:54;;;;;;;2.40;2.17;;;;;;;2.50;47.21;101016.78;5335824;26;33352;-90
2022/03/01 05:25:24;;;;;;;2.83;2.45;;;;;;;2.21;48.43;101019.03;5335491;26;34172;-88
2022/03/01 05:27:54;;;;;;;2.30;2.08;;;;;;;2.30;48.18;101021.09;5341678;26;34701;-89
2022/03/01 05:30:24;;;;;;;2.30;2.10;;;;;;;2.34;47.96;101017.84;5335879;26;34889;-89
2022/03/01 05:32:54;;;;;;;2.92;2.20;;;;;;;2.02;48.47;101019.91;5336168;26;33348;-88
2022/03/01 05:35:25;;;;;;;2.40;2.20;;;;;;;1.96;49.03;101022.22;5336000;26;32755;-88
2022/03/01 05:37:55;;;;;;;3.03;2.35;;;;;;;2.50;47.12;101020.22;5336159;26;34524;-88
2022/03/01 05:40:27;;;;;;;2.97;2.33;;;;;;;2.38;47.65;101024.84;5341240;26;32968;-89
2022/03/01 05:42:58;;;;;;;2.35;2.15;;;;;;;2.33;47.76;101018.66;5341503;26;34810;-87
2022/03/01 05:45:26;;;;;;;2.90;2.65;;;;;;;2.37;47.94;101020.53;5336413;26;33441;-88
2022/03/01 05:47:58;;;;;;;2.92;2.20;;;;;;;2.35;47.65;101023.03;5336523;26;34548;-90
2022/03/01 05:50:46;;;;;;;2.72;2.30;;;;;;;2.42;47.71;101021.59;5333841;26;34682;-90
2022/03/01 05:53:15;;;;;;;2.00;1.90;;;;;;;2.59;46.99;101013.75;5336896;26;34227;-88
2022/03/01 05:56:03;;;;;;;3.75;2.25;;;;;;;2.50;47.64;101022.78;5322036;26;32592;-88
2022/03/01 05:58:34;;;;;;;2.47;2.28;;;;;;;2.38;47.03;101032.53;5343117;26;34358;-89
2022/03/01 06:01:03;;;;;;;3.83;2.60;;;;;;;2.60;46.49;101030.84;5336809;26;33958;-89
2022/03/01 06:03:32;;;;;;;2.40;2.20;;;;;;;2.51;46.87;101028.78;5336547;26;33565;-88
2022/03/01 06:06:03;;;;;;;2.60;2.33;;;;;;;2.31;47.24;101023.69;5334844;26;33411;-89
2022/03/01 06:08:32;;;;;;;2.20;2.10;;;;;;;2.68;46.30;101034.56;5335059;26;33309;-90
2022/03/01 06:11:01;;;;;;;3.40;2.85;;;;;;;2.79;46.13;101028.22;5340860;26;34607;-88
2022/03/01 06:13:30;;;;;;;3.05;2.30;;;;;;;2.76;46.25;101033.22;5335995;26;34771;-88
2022/03/01 06:16:01;;;;;;;4.30;2.55;;;;;;;2.81;45.78;101036.84;5334515;26;33811;-88
2022/03/01 06:18:30;;;;;;;2.40;2.20;;;;;;;2.69;46.27;101037.22;5334414;26;33941;-87
2022/03/01 06:21:01;;;;;;;3.42;2.62;;;;;;;2.54;46.32;101034.91;5314094;26;33021;-89
2022/03/01 06:23:31;;;;;;;2.40;2.17;;;;;;;2.53;46.03;101039.97;5335417;26;33478;-87
2022/03/01 06:26:00;;;;;;;3.73;2.53;;;;;;;2.84;45.85;101034.38;5341305;26;33653;-88
2022/03/01 06:28:29;;;;;;;2.95;2.58;;;;;;;2.86;46.44;101032.75;5335215;26;34185;-89
2022/03/01 06:30:58;;;;;;;2.30;2.10;;;;;;;3.32;44.19;101025.97;5336162;26;33927;-89
2022/03/01 06:33:28;;;;;;;2.53;2.05;;;;;;;3.07;44.79;101029.28;5334233;26;33434;-89
2022/03/01 06:35:57;;;;;;;2.95;2.05;;;;;;;2.77;46.13;101027.25;5336711;26;33366;-88
2022/03/01 06:38:26;;;;;;;2.60;2.12;;;;;;;3.30;44.68;101020.78;5341690;26;33648;-89
2022/03/01 06:40:56;;;;;;;2.55;2.30;;;;;;;3.46;43.48;101021.38;5335572;26;33541;-89
2022/03/01 06:43:25;;;;;;;2.55;2.35;;;;;;;3.64;42.60;101032.28;5335597;26;34835;-88
2022/03/01 06:45:54;;;;;;;2.95;2.70;;;;;;;3.24;44.02;101028.25;5334403;26;33312;-88
2022/03/01 06:48:23;;;;;;;2.35;2.15;;;;;;;3.37;43.73;101030.44;5334625;26;34058;-90
2022/03/01 06:50:53;;;;;;;2.97;2.60;;;;;;;3.42;43.89;101034.06;5342141;26;33266;-87
2022/03/01 06:53:22;;;;;;;5.50;2.20;;;;;;;3.62;43.17;101033.91;5335397;26;32947;-90
2022/03/01 06:55:51;;;;;;;2.00;1.80;;;;;;;3.74;42.75;101026.66;5336524;26;33252;-87
2022/03/01 06:58:19;;;;;;;3.03;2.10;;;;;;;3.91;42.62;101034.09;5337001;26;33602;-89
2022/03/01 07:00:50;;;;;;;3.40;2.00;;;;;;;3.73;43.12;101019.78;5336686;26;34384;-88
2022/03/01 07:03:19;;;;;;;4.70;2.08;;;;;;;3.42;43.60;101021.22;5336649;26;34106;-88
2022/03/01 07:05:48;;;;;;;2.17;1.95;;;;;;;4.02;42.36;101022.50;5341538;26;33164;-88
2022/03/01 07:08:20;;;;;;;2.42;2.17;;;;;;;3.95;42.02;101017.97;5335113;26;33567;-89
2022/03/01 07:10:49;;;;;;;2.05;1.95;;;;;;;3.98;41.71;101016.37;5335862;26;33288;-90
2022/03/01 07:13:18;;;;;;;2.70;2.20;;;;;;;3.53;43.09;101010.50;5336695;26;34781;-88
2022/03/01 07:15:46;;;;;;;2.22;1.87;;;;;;;3.03;43.42;101012.03;5337061;26;34116;-89
2022/03/01 07:18:15;;;;;;;2.30;2.10;;;;;;;3.63;42.07;101007.44;5342811;26;33835;-89
2022/03/01 07:20:44;;;;;;;2.00;1.80;;;;;;;3.88;41.15;101010.88;5336841;26;34719;-90
2022/03/01 07:23:13;;;;;;;2.12;1.90;;;;;;;3.98;41.41;101000.09;5337013;26;34581;-88
2022/03/01 07:25:43;;;;;;;1.98;1.85;;;;;;;3.42;41.79;101000.69;5339648;26;33401;-88
2022/03/01 07:28:12;;;;;;;2.33;2.12;;;;;;;3.88;41.88;100993.78;5337234;26;33693;-88
2022/03/01 07:30:41;;;;;;;2.10;1.90;;;;;;;4.57;40.48;100993.53;5342859;26;34665;-89
2022/03/01 07:33:10;;;;;;;4.40;2.10;;;;;;;3.82;41.50;100998.72;5336436;26;33869;-89
2022/03/01 07:35:39;;;;;;;2.53;2.05;;;;;;;4.37;40.57;100994.56;5337137;26;34160;-87
2022/03/01 07:38:08;;;;;;;1.87;1.77;;;;;;;4.39;40.19;100998.06;5336853;26;34545;-89
2022/03/01 07:40:37;;;;;;;2.70;2.00;;;;;;;4.59;39.84;100994.47;5337314;26;33993;-89
2022/03/01 07:43:09;;;;;;;2.17;1.98;;;;;;;4.38;39.61;101006.59;5342220;26;34036;-90
2022/03/01 07:45:38;;;;;;;2.17;1.98;;;;;;;4.57;39.76;100995.22;5342739;26;33243;-88
2022/03/01 07:48:07;;;;;;;2.10;1.90;;;;;;;4.57;39.47;100997.81;5336876;26;34021;-88
2022/03/01 07:50:36;;;;;;;1.95;1.80;;;;;;;4.51;39.04;100998.47;5337213;26;33840;-89
2022/03/01 07:53:04;;;;;;;1.92;1.70;;;;;;;4.09;40.53;100997.94;5336861;26;34173;-90
2022/03/01 07:55:34;;;;;;;3.65;2.15;;;;;;;4.51;38.87;100995.03;5335692;26;33342;-89
2022/03/01 07:58:02;;;;;;;2.03;1.80;;;;;;;4.60;38.95;101001.31;5343010;26;34013;-88
2022/03/01 08:00:32;;;;;;;2.47;2.22;;;;;;;4.58;39.16;100996.97;5336698;26;34570;-85
2022/03/01 08:03:02;;;;;;;2.20;1.90;;;;;;;4.87;38.59;100997.88;5336475;26;34381;-87
2022/03/01 08:05:31;;;;;;;1.80;1.70;;;;;;;4.88;38.55;100995.38;5336362;26;34206;-86
2022/03/01 08:07:59;;;;;;;2.58;2.37;;;;;;;4.88;38.24;100999.59;5336314;26;34542;-86
2022/03/01 08:10:28;;;;;;;1.70;1.60;;;;;;;4.86;37.92;100997.00;5340939;26;34720;-87
2022/03/01 08:12:58;;;;;;;1.80;1.70;;;;;;;4.79;38.10;100989.06;5336559;26;33803;-87
2022/03/01 08:15:27;;;;;;;2.50;1.90;;;;;;;4.11;39.82;100997.16;5336206;26;33417;-86
2022/03/01 08:17:59;;;;;;;1.80;1.70;;;;;;;4.41;39.18;100999.00;5335811;26;35582;-86
2022/03/01 08:20:28;;;;;;;2.05;1.85;;;;;;;5.04;37.70;100998.41;5336868;26;33988;-85
2022/03/01 08:22:58;;;;;;;2.25;1.73;;;;;;;5.21;37.43;101004.03;5341897;26;33976;-86
2022/03/01 08:25:27;;;;;;;1.73;1.62;;;;;;;4.50;39.12;101004.44;5340985;26;33291;-86
2022/03/01 08:28:00;;;;;;;2.75;2.05;;;;;;;4.82;38.45;100996.87;5336445;26;33478;-87
2022/03/01 08:30:29;;;;;;;1.80;1.70;;;;;;;5.42;37.02;100994.38;5336487;26;34632;-86
2022/03/01 08:33:00;;;;;;;2.10;1.65;;;;;;;4.84;38.37;101002.94;5336168;26;34816;-86
2022/03/01 08:35:30;;;;;;;2.10;1.60;;;;;;;5.13;36.96;100999.53;5336802;26;34872;-86
2022/03/01 08:38:02;;;;;;;1.73;1.62;;;;;;;5.14;36.56;100998.69;5341438;26;35564;-85
2022/03/01 08:40:32;;;;;;;1.77;1.67;;;;;;;5.16;37.20;101000.47;5335911;26;33920;-86
2022/03/01 08:43:01;;;;;;;4.53;1.52;;;;;;;5.03;36.63;100994.97;5337139;26;33474;-86
2022/03/01 08:45:31;;;;;;;2.60;1.95;;;;;;;5.47;36.00;100997.09;5337066;26;34094;-86
2022/03/01 08:48:01;;;;;;;1.62;1.52;;;;;;;5.60;35.00;100988.00;5336667;26;33932;-86
2022/03/01 08:50:30;;;;;;;1.70;1.60;;;;;;;5.30;36.41;100983.75;5342816;26;33845;-85
2022/03/01 08:53:12;;;;;;;2.65;1.70;;;;;;;5.14;36.60;100984.97;5342221;26;33974;-86
2022/03/01 08:55:42;;;;;;;2.08;1.87;;;;;;;5.50;35.97;100987.75;5336460;26;33009;-87
2022/03/01 08:58:10;;;;;;;1.83;1.73;;;;;;;6.07;34.17;100989.31;5336832;26;35436;-86
2022/03/01 09:00:39;;;;;;;1.70;1.60;;;;;;;5.73;35.14;100977.22;5336541;26;33725;-87
2022/03/01 09:03:10;;;;;;;1.87;1.73;;;;;;;5.81;34.54;100983.44;5336333;26;34211;-87
2022/03/01 09:05:58;;;;;;;2.40;1.95;;;;;;;5.53;34.60;100977.56;5338073;26;32971;-87
2022/03/01 09:08:31;;;;;;;1.65;1.55;;;;;;;5.45;34.90;100967.84;5341471;26;33708;-85
2022/03/01 09:11:00;;;;;;;1.73;1.58;;;;;;;6.29;33.34;100974.41;5335062;26;34688;-85
2022/03/01 09:13:29;;;;;;;2.47;2.28;;;;;;;6.11;33.67;100974.78;5336286;26;33612;-85
2022/03/01 09:15:58;;;;;;;1.50;1.40;;;;;;;6.03;33.73;100966.00;5334587;26;34227;-86
2022/03/01 09:18:30;;;;;;;4.37;2.80;;;;;;;5.73;34.83;100972.06;5335810;26;33961;-86
2022/03/01 09:20:59;;;;;;;2.57;1.77;;;;;;;6.06;33.57;100974.69;5341862;26;34104;-86
2022/03/01 09:23:30;;;;;;;1.67;1.58;;;;;;;5.44;34.15;100961.84;5336709;26;34464;-85
2022/03/01 09:25:59;;;;;;;2.05;1.55;;;;;;;5.69;34.17;100962.50;5329576;26;177318;-87
2022/03/01 09:28:27;;;;;;;1.85;1.75;;;;;;;6.07;33.37;100965.28;5336756;26;33327;-85
2022/03/01 09:30:56;;;;;;;1.98;1.80;;;;;;;6.73;31.97;100952.25;5337310;26;33928;-86
2022/03/01 09:33:25;;;;;;;3.90;1.73;;;;;;;5.94;33.25;100953.75;5342062;26;34529;-86
2022/03/01 09:35:55;;;;;;;1.50;1.40;;;;;;;6.11;33.76;100960.22;5337635;26;33246;-86
2022/03/01 09:38:26;;;;;;;2.60;2.03;;;;;;;5.73;33.51;100956.63;5337599;26;34472;-86
2022/03/01 09:40:56;;;;;;;1.83;1.60;;;;;;;5.92;32.81;100945.06;5338139;26;34762;-87
2022/03/01 09:43:25;;;;;;;1.60;1.50;;;;;;;6.19;32.05;100937.22;5337303;26;33846;-87
2022/03/01 09:45:53;;;;;;;1.60;1.50;;;;;;;6.40;31.85;100936.84;5337181;26;33269;-86
2022/03/01 09:48:22;;;;;;;1.58;1.48;;;;;;;6.76;31.17;100929.09;5323292;26;33165;-86
2022/03/01 09:50:51;;;;;;;2.28;1.92;;;;;;;6.26;32.41;100930.50;5337147;26;34845;-87
2022/03/01 09:53:21;;;;;;;1.70;1.60;;;;;;;5.84;33.12;100926.00;5337100;26;34579;-87
2022/03/01 09:55:52;;;;;;;1.50;1.40;;;;;;;6.43;31.92;100920.59;5337364;26;34017;-85
2022/03/01 09:58:21;;;;;;;3.00;1.60;;;;;;;5.68;33.48;100925.59;5337148;26;33613;-86
2022/03/01 10:00:50;;;;;;;1.70;1.60;;;;;;;5.91;32.79;100910.72;5343080;26;33741;-85
2022/03/01 10:03:20;;;;;;;3.50;1.90;;;;;;;6.45;32.39;100906.03;5335600;26;34477;-85
2022/03/01 10:05:50;;;;;;;2.37;1.67;;;;;;;6.46;32.77;100903.50;5337067;26;33142;-86
2022/03/01 10:08:22;;;;;;;1.83;1.73;;;;;;;6.05;32.96;100903.38;5337102;26;34774;-86
2022/03/01 10:10:52;;;;;;;2.60;1.50;;;;;;;6.41;32.05;100902.53;5337003;26;33616;-87
2022/03/01 10:13:27;;;;;;;2.55;1.83;;;;;;;6.09;32.53;100901.75;5322780;26;32555;-87
2022/03/01 10:16:03;;;;;;;1.90;1.77;;;;;;;6.65;30.66;100894.47;5341972;26;33452;-87
2022/03/01 10:18:34;;;;;;;2.00;1.70;;;;;;;6.83;30.87;100894.84;5336794;26;34061;-88
2022/03/01 10:21:05;;;;;;;2.75;1.77;;;;;;;6.69;30.83;100895.41;5336897;26;34679;-86
2022/03/01 10:23:35;;;;;;;2.80;1.80;;;;;;;6.63;30.22;100889.28;5337550;26;33977;-86
2022/03/01 10:26:13;;;;;;;1.65;1.50;;;;;;;6.69;29.68;100883.38;5316699;26;32831;-86
2022/03/01 10:28:45;;;;;;;2.15;1.92;;;;;;;7.29;29.29;100878.59;5341010;26;34588;-88
2022/03/01 10:31:16;;;;;;;1.73;1.58;;;;;;;5.94;31.15;100874.81;5342899;26;34285;-86
2022/03/01 10:33:56;;;;;;;4.80;2.30;;;;;;;6.33;30.44;100868.84;5338552;26;33830;-86
2022/03/01 10:36:26;;;;;;;2.05;1.85;;;;;;;5.82;30.84;100865.84;5337412;26;34157;-86
2022/03/01 10:38:57;;;;;;;2.15;1.83;;;;;;;6.53;30.39;100865.84;5336652;26;33010;-86
2022/03/01 10:41:26;;;;;;;;;;;;;;;6.66;30.42;100861.81;5337483;26;33753;-89
2022/03/01 10:43:58;;;;;;;4.22;2.25;;;;;;;6.67;30.56;100861.88;5343117;26;33854;-87
2022/03/01 10:46:29;;;;;;;4.25;2.00;;;;;;;6.10;30.72;100855.41;5337221;26;34149;-86
2022/03/01 10:49:01;;;;;;;2.30;1.60;;;;;;;6.30;30.49;100848.16;5337564;26;34748;-87
2022/03/01 10:51:30;;;;;;;1.83;1.65;;;;;;;6.15;30.94;100843.50;5338544;26;34813;-87
2022/03/01 10:54:01;;;;;;;1.52;1.42;;;;;;;6.64;29.59;100836.00;5336907;26;34469;-86
2022/03/01 10:56:37;;;;;;;1.50;1.35;;;;;;;6.10;29.75;100828.78;5317612;26;32646;-85
2022/03/01 10:59:08;;;;;;;1.60;1.50;;;;;;;6.16;29.67;100822.09;5343117;26;33820;-88
2022/03/01 11:01:36;;;;;;;2.65;1.60;;;;;;;6.02;29.37;100817.41;5337840;26;35719;-87
2022/03/01 11:04:07;;;;;;;3.03;1.60;;;;;;;6.96;27.93;100817.72;5337481;26;33443;-87
2022/03/01 11:06:38;;;;;;;1.65;1.55;;;;;;;5.95;29.39;100819.87;5337466;26;32929;-86
2022/03/01 11:09:09;;;;;;;1.75;1.65;;;;;;;6.38;29.51;100809.69;5317222;26;33959;-86
2022/03/01 11:11:38;;;;;;;1.60;1.50;;;;;;;6.91;29.08;100797.03;5343093;26;34068;-87
2022/03/01 11:14:07;;;;;;;1.50;1.40;;;;;;;6.61;28.96;100802.41;5321135;26;33327;-87
2022/03/01 11:16:47;;;;;;;1.40;1.30;;;;;;;6.99;28.72;100802.31;5337378;26;33493;-87
2022/03/01 11:19:51;;;;;;;3.47;1.98;;;;;;;6.87;27.81;100795.22;5337635;26;33519;-87
2022/03/01 11:22:23;;;;;;;1.60;1.50;;;;;;;7.17;28.30;100786.31;5317606;26;32502;-86
2022/03/01 11:24:53;;;;;;;1.52;1.42;;;;;;;7.80;26.44;100783.06;5337485;26;33388;-87
2022/03/01 11:27:25;;;;;;;1.80;1.50;;;;;;;7.95;27.06;100779.87;5337151;26;32995;-87
2022/03/01 11:30:06;;;;;;;2.12;1.70;;;;;;;8.52;25.95;100768.59;5342945;26;33474;-87
2022/03/01 11:32:38;;;;;;;2.15;1.95;;;;;;;8.57;25.78;100768.66;5343264;26;34004;-86
2022/03/01 11:35:08;;;;;;;1.48;1.37;;;;;;;8.45;25.28;100763.34;5337051;26;33930;-86
2022/03/01 11:37:44;;;;;;;1.80;1.60;;;;;;;8.38;25.22;100753.75;5336477;26;32260;-88
2022/03/01 11:40:23;;;;;;;1.87;1.70;;;;;;;8.18;25.22;100744.00;5336639;26;33911;-86
2022/03/01 11:42:53;;;;;;;2.58;1.55;;;;;;;7.97;26.33;100747.16;5335806;26;33583;-86
2022/03/01 11:45:39;;;;;;;1.48;1.37;;;;;;;7.41;26.97;100744.56;5319473;26;33102;-86
2022/03/01 11:48:14;;;;;;;1.62;1.52;;;;;;;7.70;25.88;100745.03;5342391;26;33482;-85
2022/03/01 11:50:47;;;;;;;2.87;1.40;;;;;;;8.35;23.75;100736.47;5337359;26;34326;-86